sensor_id;sensor_type;location;lat;lon;timestamp;temperature;humidity
19017;DHT22;9641;51.494;6.670;2022-08-25T00:02:06;24.80;1.00
19017;DHT22;9641;51.494;6.670;2022-08-25T00:04:51;24.80;1.00
19017;DHT22;9641;51.494;6.670;2022-08-25T00:07:35;24.80;1.00
19017;DHT22;9641;51.494;6.670;2022-08-25T00:10:18;24.80;1.00
19017;DHT22;9641;51.494;6.670;2022-08-25T00:12:53;24.80;1.00
19017;DHT22;9641;51.494;6.670;2022-08-25T00:15:38;24.80;1.00
19017;DHT22;9641;51.494;6.670;2022-08-25T00:21:19;24.70;1.00
19017;DHT22;9641;51.494;6.670;2022-08-25T00:23:51;24.70;1.00
19017;DHT22;9641;51.494;6.670;2022-08-25T00:26:19;24.70;1.00
19017;DHT22;9641;51.494;6.670;2022-08-25T00:28:47;24.70;1.00
19017;DHT22;9641;51.494;6.670;2022-08-25T00:31:17;24.70;1.00
19017;DHT22;9641;51.494;6.670;2022-08-25T00:33:46;24.70;1.00
19017;DHT22;9641;51.494;6.670;2022-08-25T00:36:14;24.70;1.00
19017;DHT22;9641;51.494;6.670;2022-08-25T00:38:42;24.70;1.00
19017;DHT22;9641;51.494;6.670;2022-08-25T00:41:11;24.60;1.00
19017;DHT22;9641;51.494;6.670;2022-08-25T00:43:46;24.50;1.00
19017;DHT22;9641;51.494;6.670;2022-08-25T00:46:18;24.40;1.00
19017;DHT22;9641;51.494;6.670;2022-08-25T00:48:48;24.30;1.00
19017;DHT22;9641;51.494;6.670;2022-08-25T00:51:19;24.30;1.00
19017;DHT22;9641;51.494;6.670;2022-08-25T00:53:49;24.30;1.00
19017;DHT22;9641;51.494;6.670;2022-08-25T00:56:16;24.20;1.00
19017;DHT22;9641;51.494;6.670;2022-08-25T00:58:46;24.20;1.00
19017;DHT22;9641;51.494;6.670;2022-08-25T01:01:13;24.10;1.00
19017;DHT22;9641;51.494;6.670;2022-08-25T01:03:40;24.00;1.00
19017;DHT22;9641;51.494;6.670;2022-08-25T01:06:07;23.90;1.00
19017;DHT22;9641;51.494;6.670;2022-08-25T01:08:35;23.90;1.00
19017;DHT22;9641;51.494;6.670;2022-08-25T01:11:04;23.80;1.00
19017;DHT22;9641;51.494;6.670;2022-08-25T01:13:34;23.80;1.00
19017;DHT22;9641;51.494;6.670;2022-08-25T01:16:04;23.80;1.00
19017;DHT22;9641;51.494;6.670;2022-08-25T01:18:44;23.80;1.00
19017;DHT22;9641;51.494;6.670;2022-08-25T01:21:14;23.60;1.00
19017;DHT22;9641;51.494;6.670;2022-08-25T01:23:42;23.60;1.00
19017;DHT22;9641;51.494;6.670;2022-08-25T01:26:12;23.50;1.00
19017;DHT22;9641;51.494;6.670;2022-08-25T01:28:41;23.40;1.00
19017;DHT22;9641;51.494;6.670;2022-08-25T01:31:29;23.40;1.00
19017;DHT22;9641;51.494;6.670;2022-08-25T01:33:57;23.30;1.00
19017;DHT22;9641;51.494;6.670;2022-08-25T01:36:27;23.10;1.00
19017;DHT22;9641;51.494;6.670;2022-08-25T01:38:55;23.00;1.00
19017;DHT22;9641;51.494;6.670;2022-08-25T01:41:29;22.90;1.00
19017;DHT22;9641;51.494;6.670;2022-08-25T01:43:57;22.90;1.00
19017;DHT22;9641;51.494;6.670;2022-08-25T01:46:24;23.00;1.00
19017;DHT22;9641;51.494;6.670;2022-08-25T01:48:50;22.90;1.00
19017;DHT22;9641;51.494;6.670;2022-08-25T01:51:19;22.90;19.80
19017;DHT22;9641;51.494;6.670;2022-08-25T01:53:48;22.90;84.00
19017;DHT22;9641;51.494;6.670;2022-08-25T01:56:16;22.90;1.00
19017;DHT22;9641;51.494;6.670;2022-08-25T01:58:46;22.90;1.00
19017;DHT22;9641;51.494;6.670;2022-08-25T02:01:17;22.80;1.00
19017;DHT22;9641;51.494;6.670;2022-08-25T02:03:47;22.80;1.00
19017;DHT22;9641;51.494;6.670;2022-08-25T02:06:16;22.80;1.00
19017;DHT22;9641;51.494;6.670;2022-08-25T02:08:46;22.70;99.90
19017;DHT22;9641;51.494;6.670;2022-08-25T02:11:18;22.70;13.40
19017;DHT22;9641;51.494;6.670;2022-08-25T02:13:45;22.70;11.80
19017;DHT22;9641;51.494;6.670;2022-08-25T02:16:16;22.60;98.10
19017;DHT22;9641;51.494;6.670;2022-08-25T02:18:45;22.60;99.90
19017;DHT22;9641;51.494;6.670;2022-08-25T02:21:12;22.60;99.90
19017;DHT22;9641;51.494;6.670;2022-08-25T02:23:40;22.50;99.90
19017;DHT22;9641;51.494;6.670;2022-08-25T02:26:08;22.50;1.00
19017;DHT22;9641;51.494;6.670;2022-08-25T02:28:36;22.40;99.90
19017;DHT22;9641;51.494;6.670;2022-08-25T02:31:04;22.40;1.00
19017;DHT22;9641;51.494;6.670;2022-08-25T02:33:31;22.30;1.00
19017;DHT22;9641;51.494;6.670;2022-08-25T02:35:59;22.30;1.00
19017;DHT22;9641;51.494;6.670;2022-08-25T02:38:27;22.30;1.00
19017;DHT22;9641;51.494;6.670;2022-08-25T02:40:54;22.30;99.90
19017;DHT22;9641;51.494;6.670;2022-08-25T02:43:21;22.30;65.00
19017;DHT22;9641;51.494;6.670;2022-08-25T02:45:51;22.20;99.90
19017;DHT22;9641;51.494;6.670;2022-08-25T02:48:18;22.20;99.90
19017;DHT22;9641;51.494;6.670;2022-08-25T02:50:46;22.20;1.00
19017;DHT22;9641;51.494;6.670;2022-08-25T02:53:16;22.10;1.00
19017;DHT22;9641;51.494;6.670;2022-08-25T02:55:43;22.00;99.90
19017;DHT22;9641;51.494;6.670;2022-08-25T02:58:10;21.90;99.90
19017;DHT22;9641;51.494;6.670;2022-08-25T03:00:37;21.90;99.90
19017;DHT22;9641;51.494;6.670;2022-08-25T03:03:05;21.90;1.00
19017;DHT22;9641;51.494;6.670;2022-08-25T03:05:32;21.90;1.00
19017;DHT22;9641;51.494;6.670;2022-08-25T03:07:59;21.90;1.00
19017;DHT22;9641;51.494;6.670;2022-08-25T03:10:27;21.80;1.00
19017;DHT22;9641;51.494;6.670;2022-08-25T03:12:55;21.80;15.90
19017;DHT22;9641;51.494;6.670;2022-08-25T03:15:22;21.70;99.90
19017;DHT22;9641;51.494;6.670;2022-08-25T03:17:53;21.70;1.00
19017;DHT22;9641;51.494;6.670;2022-08-25T03:20:24;21.70;1.00
19017;DHT22;9641;51.494;6.670;2022-08-25T03:22:52;21.70;99.90
19017;DHT22;9641;51.494;6.670;2022-08-25T03:25:19;21.70;7.60
19017;DHT22;9641;51.494;6.670;2022-08-25T03:28:06;21.70;1.00
19017;DHT22;9641;51.494;6.670;2022-08-25T03:30:34;21.60;99.90
19017;DHT22;9641;51.494;6.670;2022-08-25T03:33:01;21.60;1.00
19017;DHT22;9641;51.494;6.670;2022-08-25T03:35:29;21.60;1.00
19017;DHT22;9641;51.494;6.670;2022-08-25T03:37:57;21.50;99.90
19017;DHT22;9641;51.494;6.670;2022-08-25T03:40:25;21.40;1.00
19017;DHT22;9641;51.494;6.670;2022-08-25T03:42:52;21.40;1.00
19017;DHT22;9641;51.494;6.670;2022-08-25T03:45:23;21.40;99.90
19017;DHT22;9641;51.494;6.670;2022-08-25T03:47:51;21.40;89.90
19017;DHT22;9641;51.494;6.670;2022-08-25T03:50:20;21.30;1.00
19017;DHT22;9641;51.494;6.670;2022-08-25T03:52:52;21.30;99.90
19017;DHT22;9641;51.494;6.670;2022-08-25T03:55:21;21.30;1.00
19017;DHT22;9641;51.494;6.670;2022-08-25T03:57:49;21.30;99.90
19017;DHT22;9641;51.494;6.670;2022-08-25T04:00:17;21.20;76.10
19017;DHT22;9641;51.494;6.670;2022-08-25T04:02:44;21.20;1.00
19017;DHT22;9641;51.494;6.670;2022-08-25T04:05:11;21.20;1.00
19017;DHT22;9641;51.494;6.670;2022-08-25T04:07:39;21.10;1.00
19017;DHT22;9641;51.494;6.670;2022-08-25T04:10:09;21.00;1.00
19017;DHT22;9641;51.494;6.670;2022-08-25T04:12:37;21.00;99.90
19017;DHT22;9641;51.494;6.670;2022-08-25T04:15:06;21.00;99.90
19017;DHT22;9641;51.494;6.670;2022-08-25T04:17:36;21.00;1.00
19017;DHT22;9641;51.494;6.670;2022-08-25T04:20:05;20.90;35.40
19017;DHT22;9641;51.494;6.670;2022-08-25T04:22:33;20.90;1.00
19017;DHT22;9641;51.494;6.670;2022-08-25T04:25:01;20.80;1.00
19017;DHT22;9641;51.494;6.670;2022-08-25T04:27:30;20.80;63.40
19017;DHT22;9641;51.494;6.670;2022-08-25T04:29:57;20.80;1.00
19017;DHT22;9641;51.494;6.670;2022-08-25T04:32:24;20.80;1.00
19017;DHT22;9641;51.494;6.670;2022-08-25T04:34:53;20.70;1.00
19017;DHT22;9641;51.494;6.670;2022-08-25T04:37:20;20.80;99.90
19017;DHT22;9641;51.494;6.670;2022-08-25T04:39:47;20.70;1.00
19017;DHT22;9641;51.494;6.670;2022-08-25T04:42:14;20.80;99.90
19017;DHT22;9641;51.494;6.670;2022-08-25T04:44:43;20.80;1.00
19017;DHT22;9641;51.494;6.670;2022-08-25T04:47:13;20.70;1.00
19017;DHT22;9641;51.494;6.670;2022-08-25T04:49:40;20.80;99.90
19017;DHT22;9641;51.494;6.670;2022-08-25T04:52:07;20.70;1.00
19017;DHT22;9641;51.494;6.670;2022-08-25T04:54:34;20.70;94.80
19017;DHT22;9641;51.494;6.670;2022-08-25T04:57:01;20.60;1.00
19017;DHT22;9641;51.494;6.670;2022-08-25T04:59:28;20.60;1.00
19017;DHT22;9641;51.494;6.670;2022-08-25T05:01:57;20.60;47.20
19017;DHT22;9641;51.494;6.670;2022-08-25T05:04:26;20.60;99.90
19017;DHT22;9641;51.494;6.670;2022-08-25T05:06:54;20.60;1.00
19017;DHT22;9641;51.494;6.670;2022-08-25T05:09:21;20.60;99.90
19017;DHT22;9641;51.494;6.670;2022-08-25T05:11:48;20.70;1.00
19017;DHT22;9641;51.494;6.670;2022-08-25T05:14:15;20.70;99.90
19017;DHT22;9641;51.494;6.670;2022-08-25T05:16:46;20.60;1.00
19017;DHT22;9641;51.494;6.670;2022-08-25T05:19:15;20.60;99.90
19017;DHT22;9641;51.494;6.670;2022-08-25T05:21:42;20.60;1.00
19017;DHT22;9641;51.494;6.670;2022-08-25T05:24:09;20.60;99.90
19017;DHT22;9641;51.494;6.670;2022-08-25T05:26:36;20.60;1.00
19017;DHT22;9641;51.494;6.670;2022-08-25T05:29:04;20.70;1.00
19017;DHT22;9641;51.494;6.670;2022-08-25T05:31:32;20.60;1.00
19017;DHT22;9641;51.494;6.670;2022-08-25T05:34:04;20.60;1.00
19017;DHT22;9641;51.494;6.670;2022-08-25T05:36:32;20.70;1.00
19017;DHT22;9641;51.494;6.670;2022-08-25T05:39:00;20.70;99.90
19017;DHT22;9641;51.494;6.670;2022-08-25T05:41:28;20.70;1.00
19017;DHT22;9641;51.494;6.670;2022-08-25T05:43:56;20.80;1.00
19017;DHT22;9641;51.494;6.670;2022-08-25T05:46:24;20.80;99.90
19017;DHT22;9641;51.494;6.670;2022-08-25T05:48:52;20.90;99.90
19017;DHT22;9641;51.494;6.670;2022-08-25T05:51:20;20.90;99.90
19017;DHT22;9641;51.494;6.670;2022-08-25T05:53:49;21.00;1.00
19017;DHT22;9641;51.494;6.670;2022-08-25T05:56:17;21.00;99.90
19017;DHT22;9641;51.494;6.670;2022-08-25T05:58:45;21.00;99.90
19017;DHT22;9641;51.494;6.670;2022-08-25T06:01:23;21.10;1.00
19017;DHT22;9641;51.494;6.670;2022-08-25T06:04:08;21.10;16.90
19017;DHT22;9641;51.494;6.670;2022-08-25T06:06:35;21.20;1.00
19017;DHT22;9641;51.494;6.670;2022-08-25T06:09:03;21.30;1.00
19017;DHT22;9641;51.494;6.670;2022-08-25T06:11:34;21.50;99.90
19017;DHT22;9641;51.494;6.670;2022-08-25T06:14:03;21.60;1.00
19017;DHT22;9641;51.494;6.670;2022-08-25T06:16:33;21.60;1.00
19017;DHT22;9641;51.494;6.670;2022-08-25T06:19:00;21.60;1.00
19017;DHT22;9641;51.494;6.670;2022-08-25T06:21:27;21.70;1.00
19017;DHT22;9641;51.494;6.670;2022-08-25T06:23:54;21.80;74.80
19017;DHT22;9641;51.494;6.670;2022-08-25T06:26:22;21.90;1.00
19017;DHT22;9641;51.494;6.670;2022-08-25T06:28:50;22.00;1.00
19017;DHT22;9641;51.494;6.670;2022-08-25T06:31:18;22.10;99.90
19017;DHT22;9641;51.494;6.670;2022-08-25T06:33:46;22.10;1.00
19017;DHT22;9641;51.494;6.670;2022-08-25T06:36:14;22.30;48.90
19017;DHT22;9641;51.494;6.670;2022-08-25T06:38:41;22.30;99.90
19017;DHT22;9641;51.494;6.670;2022-08-25T06:41:08;22.40;99.90
19017;DHT22;9641;51.494;6.670;2022-08-25T06:43:38;22.50;99.90
19017;DHT22;9641;51.494;6.670;2022-08-25T06:46:09;22.70;1.00
19017;DHT22;9641;51.494;6.670;2022-08-25T06:48:37;22.80;1.00
19017;DHT22;9641;51.494;6.670;2022-08-25T06:51:06;22.80;99.90
19017;DHT22;9641;51.494;6.670;2022-08-25T06:53:33;23.00;1.00
19017;DHT22;9641;51.494;6.670;2022-08-25T06:56:01;23.00;1.00
19017;DHT22;9641;51.494;6.670;2022-08-25T06:58:29;23.10;99.90
19017;DHT22;9641;51.494;6.670;2022-08-25T07:01:05;23.20;1.00
19017;DHT22;9641;51.494;6.670;2022-08-25T07:03:33;23.30;1.00
19017;DHT22;9641;51.494;6.670;2022-08-25T07:06:01;23.40;1.00
19017;DHT22;9641;51.494;6.670;2022-08-25T07:08:29;23.40;99.90
19017;DHT22;9641;51.494;6.670;2022-08-25T07:10:56;23.60;29.50
19017;DHT22;9641;51.494;6.670;2022-08-25T07:13:23;23.70;1.00
19017;DHT22;9641;51.494;6.670;2022-08-25T07:15:53;23.80;1.00
19017;DHT22;9641;51.494;6.670;2022-08-25T07:18:22;23.90;99.90
19017;DHT22;9641;51.494;6.670;2022-08-25T07:20:49;23.90;89.50
19017;DHT22;9641;51.494;6.670;2022-08-25T07:23:16;24.00;1.00
19017;DHT22;9641;51.494;6.670;2022-08-25T07:25:43;24.10;99.90
19017;DHT22;9641;51.494;6.670;2022-08-25T07:28:10;24.20;99.90
19017;DHT22;9641;51.494;6.670;2022-08-25T07:30:37;24.20;99.90
19017;DHT22;9641;51.494;6.670;2022-08-25T07:33:04;24.20;99.90
19017;DHT22;9641;51.494;6.670;2022-08-25T07:35:33;24.30;99.90
19017;DHT22;9641;51.494;6.670;2022-08-25T07:38:01;24.40;99.90
19017;DHT22;9641;51.494;6.670;2022-08-25T07:40:30;24.40;99.90
19017;DHT22;9641;51.494;6.670;2022-08-25T07:43:00;24.50;99.90
19017;DHT22;9641;51.494;6.670;2022-08-25T07:45:38;24.50;99.90
19017;DHT22;9641;51.494;6.670;2022-08-25T07:48:07;24.50;99.90
19017;DHT22;9641;51.494;6.670;2022-08-25T07:50:38;24.50;99.90
19017;DHT22;9641;51.494;6.670;2022-08-25T07:53:07;24.50;99.90
19017;DHT22;9641;51.494;6.670;2022-08-25T07:55:36;24.60;99.90
19017;DHT22;9641;51.494;6.670;2022-08-25T07:58:04;24.70;99.90
19017;DHT22;9641;51.494;6.670;2022-08-25T08:00:36;24.70;99.90
19017;DHT22;9641;51.494;6.670;2022-08-25T08:03:07;24.70;99.90
19017;DHT22;9641;51.494;6.670;2022-08-25T08:05:41;24.80;99.90
19017;DHT22;9641;51.494;6.670;2022-08-25T08:08:08;24.80;99.90
19017;DHT22;9641;51.494;6.670;2022-08-25T08:10:38;24.80;99.90
19017;DHT22;9641;51.494;6.670;2022-08-25T08:13:05;24.90;99.90
19017;DHT22;9641;51.494;6.670;2022-08-25T08:15:33;25.00;99.90
19017;DHT22;9641;51.494;6.670;2022-08-25T08:18:01;25.00;98.40
19017;DHT22;9641;51.494;6.670;2022-08-25T08:20:29;25.00;96.10
19017;DHT22;9641;51.494;6.670;2022-08-25T08:23:00;25.10;95.50
19017;DHT22;9641;51.494;6.670;2022-08-25T08:25:27;25.20;90.80
19017;DHT22;9641;51.494;6.670;2022-08-25T08:27:54;25.20;85.20
19017;DHT22;9641;51.494;6.670;2022-08-25T08:30:22;25.30;87.20
19017;DHT22;9641;51.494;6.670;2022-08-25T08:32:49;25.40;89.70
19017;DHT22;9641;51.494;6.670;2022-08-25T08:35:17;25.40;89.60
19017;DHT22;9641;51.494;6.670;2022-08-25T08:37:44;25.50;67.50
19017;DHT22;9641;51.494;6.670;2022-08-25T08:40:14;25.50;50.60
19017;DHT22;9641;51.494;6.670;2022-08-25T08:42:55;25.60;49.30
19017;DHT22;9641;51.494;6.670;2022-08-25T08:45:35;25.60;50.80
19017;DHT22;9641;51.494;6.670;2022-08-25T08:48:25;25.70;18.90
19017;DHT22;9641;51.494;6.670;2022-08-25T08:51:06;25.80;25.20
19017;DHT22;9641;51.494;6.670;2022-08-25T08:53:43;25.90;33.90
19017;DHT22;9641;51.494;6.670;2022-08-25T08:56:14;26.00;21.80
19017;DHT22;9641;51.494;6.670;2022-08-25T08:58:43;26.10;7.40
19017;DHT22;9641;51.494;6.670;2022-08-25T09:01:16;26.10;8.50
19017;DHT22;9641;51.494;6.670;2022-08-25T09:03:48;26.20;2.10
19017;DHT22;9641;51.494;6.670;2022-08-25T09:06:21;26.20;3.40
19017;DHT22;9641;51.494;6.670;2022-08-25T09:08:52;26.40;1.00
19017;DHT22;9641;51.494;6.670;2022-08-25T09:11:28;26.50;1.00
19017;DHT22;9641;51.494;6.670;2022-08-25T09:14:06;26.50;1.00
19017;DHT22;9641;51.494;6.670;2022-08-25T09:16:43;26.80;1.00
19017;DHT22;9641;51.494;6.670;2022-08-25T09:19:32;26.90;1.00
19017;DHT22;9641;51.494;6.670;2022-08-25T09:22:05;26.90;1.00
19017;DHT22;9641;51.494;6.670;2022-08-25T09:24:47;27.00;1.00
19017;DHT22;9641;51.494;6.670;2022-08-25T09:27:23;27.10;1.00
19017;DHT22;9641;51.494;6.670;2022-08-25T09:29:59;27.10;1.00
19017;DHT22;9641;51.494;6.670;2022-08-25T09:32:31;27.10;1.00
19017;DHT22;9641;51.494;6.670;2022-08-25T09:35:00;27.20;1.00
19017;DHT22;9641;51.494;6.670;2022-08-25T09:37:28;27.30;1.00
19017;DHT22;9641;51.494;6.670;2022-08-25T09:39:55;27.30;1.00
19017;DHT22;9641;51.494;6.670;2022-08-25T09:42:44;27.40;1.00
19017;DHT22;9641;51.494;6.670;2022-08-25T09:45:13;27.50;1.00
19017;DHT22;9641;51.494;6.670;2022-08-25T09:47:42;27.50;1.00
19017;DHT22;9641;51.494;6.670;2022-08-25T09:50:14;27.60;1.00
19017;DHT22;9641;51.494;6.670;2022-08-25T09:52:42;27.60;1.00
19017;DHT22;9641;51.494;6.670;2022-08-25T09:55:25;27.80;1.00
19017;DHT22;9641;51.494;6.670;2022-08-25T09:58:15;27.80;1.00
19017;DHT22;9641;51.494;6.670;2022-08-25T10:00:42;27.90;1.00
19017;DHT22;9641;51.494;6.670;2022-08-25T10:03:20;28.00;1.00
19017;DHT22;9641;51.494;6.670;2022-08-25T10:05:59;28.00;1.00
19017;DHT22;9641;51.494;6.670;2022-08-25T10:08:31;28.00;1.00
19017;DHT22;9641;51.494;6.670;2022-08-25T10:11:02;28.00;1.00
19017;DHT22;9641;51.494;6.670;2022-08-25T10:13:43;28.20;1.00
19017;DHT22;9641;51.494;6.670;2022-08-25T10:16:22;28.40;1.00
19017;DHT22;9641;51.494;6.670;2022-08-25T10:19:06;28.50;1.00
19017;DHT22;9641;51.494;6.670;2022-08-25T10:21:37;28.50;1.00
19017;DHT22;9641;51.494;6.670;2022-08-25T10:24:30;28.60;1.00
19017;DHT22;9641;51.494;6.670;2022-08-25T10:27:16;28.80;1.00
19017;DHT22;9641;51.494;6.670;2022-08-25T10:30:14;28.90;1.00
19017;DHT22;9641;51.494;6.670;2022-08-25T10:33:07;29.00;1.00
19017;DHT22;9641;51.494;6.670;2022-08-25T10:35:44;29.20;1.00
19017;DHT22;9641;51.494;6.670;2022-08-25T10:38:28;29.40;1.00
19017;DHT22;9641;51.494;6.670;2022-08-25T10:41:06;29.50;1.00
19017;DHT22;9641;51.494;6.670;2022-08-25T10:43:41;29.60;1.00
19017;DHT22;9641;51.494;6.670;2022-08-25T10:46:15;29.70;1.00
19017;DHT22;9641;51.494;6.670;2022-08-25T10:49:00;29.80;1.00
19017;DHT22;9641;51.494;6.670;2022-08-25T10:51:36;29.70;1.00
19017;DHT22;9641;51.494;6.670;2022-08-25T10:54:09;29.90;1.00
19017;DHT22;9641;51.494;6.670;2022-08-25T10:56:49;29.90;1.00
19017;DHT22;9641;51.494;6.670;2022-08-25T10:59:29;30.00;1.00
19017;DHT22;9641;51.494;6.670;2022-08-25T11:02:36;30.10;1.00
19017;DHT22;9641;51.494;6.670;2022-08-25T11:05:19;30.30;1.00
19017;DHT22;9641;51.494;6.670;2022-08-25T11:08:09;30.40;1.00
19017;DHT22;9641;51.494;6.670;2022-08-25T11:10:45;30.40;1.00
19017;DHT22;9641;51.494;6.670;2022-08-25T11:13:17;30.60;1.00
19017;DHT22;9641;51.494;6.670;2022-08-25T11:15:51;30.70;1.00
19017;DHT22;9641;51.494;6.670;2022-08-25T11:18:20;30.70;1.00
19017;DHT22;9641;51.494;6.670;2022-08-25T11:20:54;30.90;1.00
19017;DHT22;9641;51.494;6.670;2022-08-25T11:23:27;31.00;1.00
19017;DHT22;9641;51.494;6.670;2022-08-25T11:25:59;31.00;1.00
19017;DHT22;9641;51.494;6.670;2022-08-25T11:28:46;31.20;1.00
19017;DHT22;9641;51.494;6.670;2022-08-25T11:31:14;31.40;1.00
19017;DHT22;9641;51.494;6.670;2022-08-25T11:33:45;31.50;1.00
19017;DHT22;9641;51.494;6.670;2022-08-25T11:36:22;31.60;1.00
19017;DHT22;9641;51.494;6.670;2022-08-25T11:38:56;31.70;1.00
19017;DHT22;9641;51.494;6.670;2022-08-25T11:41:33;31.80;1.00
19017;DHT22;9641;51.494;6.670;2022-08-25T11:44:15;32.00;1.00
19017;DHT22;9641;51.494;6.670;2022-08-25T11:47:00;32.20;1.00
19017;DHT22;9641;51.494;6.670;2022-08-25T11:49:48;32.50;1.00
19017;DHT22;9641;51.494;6.670;2022-08-25T11:52:38;32.60;1.00
19017;DHT22;9641;51.494;6.670;2022-08-25T11:55:10;32.90;1.00
19017;DHT22;9641;51.494;6.670;2022-08-25T11:57:41;33.10;1.00
19017;DHT22;9641;51.494;6.670;2022-08-25T12:00:11;33.30;1.00
19017;DHT22;9641;51.494;6.670;2022-08-25T12:02:41;33.50;1.00
19017;DHT22;9641;51.494;6.670;2022-08-25T12:08:07;34.00;1.00
19017;DHT22;9641;51.494;6.670;2022-08-25T12:11:00;34.30;1.00
19017;DHT22;9641;51.494;6.670;2022-08-25T12:13:42;34.60;1.00
19017;DHT22;9641;51.494;6.670;2022-08-25T12:16:36;35.10;1.00
19017;DHT22;9641;51.494;6.670;2022-08-25T12:19:27;35.40;1.00
19017;DHT22;9641;51.494;6.670;2022-08-25T12:25:08;35.30;1.00
19017;DHT22;9641;51.494;6.670;2022-08-25T12:27:49;35.60;1.00
19017;DHT22;9641;51.494;6.670;2022-08-25T12:30:20;36.10;1.00
19017;DHT22;9641;51.494;6.670;2022-08-25T12:33:02;36.40;1.00
19017;DHT22;9641;51.494;6.670;2022-08-25T12:35:38;36.70;1.00
19017;DHT22;9641;51.494;6.670;2022-08-25T12:38:10;36.80;1.00
19017;DHT22;9641;51.494;6.670;2022-08-25T12:40:53;37.20;1.00
19017;DHT22;9641;51.494;6.670;2022-08-25T12:43:25;37.70;1.00
19017;DHT22;9641;51.494;6.670;2022-08-25T12:46:35;38.10;1.00
19017;DHT22;9641;51.494;6.670;2022-08-25T12:49:09;38.60;1.00
19017;DHT22;9641;51.494;6.670;2022-08-25T12:51:50;38.50;1.00
19017;DHT22;9641;51.494;6.670;2022-08-25T12:54:36;38.50;1.00
19017;DHT22;9641;51.494;6.670;2022-08-25T13:00:00;39.20;1.00
19017;DHT22;9641;51.494;6.670;2022-08-25T13:08:58;39.00;1.00
19017;DHT22;9641;51.494;6.670;2022-08-25T13:11:37;39.50;1.00
19017;DHT22;9641;51.494;6.670;2022-08-25T13:14:15;39.40;1.00
19017;DHT22;9641;51.494;6.670;2022-08-25T13:16:52;39.20;1.00
19017;DHT22;9641;51.494;6.670;2022-08-25T13:19:20;39.60;1.00
19017;DHT22;9641;51.494;6.670;2022-08-25T13:21:47;40.00;1.00
19017;DHT22;9641;51.494;6.670;2022-08-25T13:24:20;40.10;1.00
19017;DHT22;9641;51.494;6.670;2022-08-25T13:26:51;40.10;1.00
19017;DHT22;9641;51.494;6.670;2022-08-25T13:29:23;39.90;1.00
19017;DHT22;9641;51.494;6.670;2022-08-25T13:31:57;39.30;1.00
19017;DHT22;9641;51.494;6.670;2022-08-25T13:34:26;39.10;1.00
19017;DHT22;9641;51.494;6.670;2022-08-25T13:36:55;39.70;1.00
19017;DHT22;9641;51.494;6.670;2022-08-25T13:39:40;40.00;1.00
19017;DHT22;9641;51.494;6.670;2022-08-25T13:42:14;40.60;1.00
19017;DHT22;9641;51.494;6.670;2022-08-25T13:44:42;40.90;1.00
19017;DHT22;9641;51.494;6.670;2022-08-25T13:47:12;41.70;1.00
19017;DHT22;9641;51.494;6.670;2022-08-25T13:49:42;41.60;1.00
19017;DHT22;9641;51.494;6.670;2022-08-25T13:52:16;41.80;1.00
19017;DHT22;9641;51.494;6.670;2022-08-25T13:54:46;42.30;1.00
19017;DHT22;9641;51.494;6.670;2022-08-25T13:57:21;42.80;1.00
19017;DHT22;9641;51.494;6.670;2022-08-25T14:00:40;43.20;1.00
19017;DHT22;9641;51.494;6.670;2022-08-25T14:03:03;43.40;1.00
19017;DHT22;9641;51.494;6.670;2022-08-25T14:05:35;43.80;1.00
19017;DHT22;9641;51.494;6.670;2022-08-25T14:11:06;44.70;1.00
19017;DHT22;9641;51.494;6.670;2022-08-25T14:13:39;44.60;1.00
19017;DHT22;9641;51.494;6.670;2022-08-25T14:16:12;44.50;1.00
19017;DHT22;9641;51.494;6.670;2022-08-25T14:18:46;44.40;1.00
19017;DHT22;9641;51.494;6.670;2022-08-25T14:21:14;44.40;1.00
19017;DHT22;9641;51.494;6.670;2022-08-25T14:23:45;44.30;1.00
19017;DHT22;9641;51.494;6.670;2022-08-25T14:26:13;44.30;1.00
19017;DHT22;9641;51.494;6.670;2022-08-25T14:28:41;44.30;1.00
19017;DHT22;9641;51.494;6.670;2022-08-25T14:31:13;44.70;1.00
19017;DHT22;9641;51.494;6.670;2022-08-25T14:33:45;44.60;1.00
19017;DHT22;9641;51.494;6.670;2022-08-25T14:36:18;44.90;1.00
19017;DHT22;9641;51.494;6.670;2022-08-25T14:39:06;44.90;1.00
19017;DHT22;9641;51.494;6.670;2022-08-25T14:41:58;45.00;1.00
19017;DHT22;9641;51.494;6.670;2022-08-25T14:44:30;45.00;1.00
19017;DHT22;9641;51.494;6.670;2022-08-25T14:46:59;44.90;1.00
19017;DHT22;9641;51.494;6.670;2022-08-25T14:49:29;45.30;1.00
19017;DHT22;9641;51.494;6.670;2022-08-25T14:52:05;45.70;1.00
19017;DHT22;9641;51.494;6.670;2022-08-25T14:54:35;45.80;1.00
19017;DHT22;9641;51.494;6.670;2022-08-25T14:57:02;45.80;1.00
19017;DHT22;9641;51.494;6.670;2022-08-25T14:59:30;46.00;1.00
19017;DHT22;9641;51.494;6.670;2022-08-25T15:01:58;46.30;1.00
19017;DHT22;9641;51.494;6.670;2022-08-25T15:04:27;46.40;1.00
19017;DHT22;9641;51.494;6.670;2022-08-25T15:06:57;46.30;1.00
19017;DHT22;9641;51.494;6.670;2022-08-25T15:09:25;46.20;1.00
19017;DHT22;9641;51.494;6.670;2022-08-25T15:11:53;46.30;1.00
19017;DHT22;9641;51.494;6.670;2022-08-25T15:14:23;46.10;1.00
19017;DHT22;9641;51.494;6.670;2022-08-25T15:16:53;46.40;1.00
19017;DHT22;9641;51.494;6.670;2022-08-25T15:19:22;46.70;1.00
19017;DHT22;9641;51.494;6.670;2022-08-25T15:21:50;46.40;1.00
19017;DHT22;9641;51.494;6.670;2022-08-25T15:24:18;46.40;1.00
19017;DHT22;9641;51.494;6.670;2022-08-25T15:26:49;46.60;1.00
19017;DHT22;9641;51.494;6.670;2022-08-25T15:29:18;46.70;1.00
19017;DHT22;9641;51.494;6.670;2022-08-25T15:31:45;46.70;1.00
19017;DHT22;9641;51.494;6.670;2022-08-25T15:34:14;46.80;1.00
19017;DHT22;9641;51.494;6.670;2022-08-25T15:36:41;46.70;1.00
19017;DHT22;9641;51.494;6.670;2022-08-25T15:39:10;46.00;1.00
19017;DHT22;9641;51.494;6.670;2022-08-25T15:41:37;45.40;1.00
19017;DHT22;9641;51.494;6.670;2022-08-25T15:44:05;45.00;1.00
19017;DHT22;9641;51.494;6.670;2022-08-25T15:46:33;44.40;1.00
19017;DHT22;9641;51.494;6.670;2022-08-25T15:49:01;44.40;1.00
19017;DHT22;9641;51.494;6.670;2022-08-25T15:51:30;44.70;1.00
19017;DHT22;9641;51.494;6.670;2022-08-25T15:53:57;45.50;1.00
19017;DHT22;9641;51.494;6.670;2022-08-25T15:56:24;45.80;1.00
19017;DHT22;9641;51.494;6.670;2022-08-25T15:58:52;46.10;1.00
19017;DHT22;9641;51.494;6.670;2022-08-25T16:01:21;46.40;1.00
19017;DHT22;9641;51.494;6.670;2022-08-25T16:03:49;46.80;1.00
19017;DHT22;9641;51.494;6.670;2022-08-25T16:06:44;47.20;1.00
19017;DHT22;9641;51.494;6.670;2022-08-25T16:09:11;47.00;1.00
19017;DHT22;9641;51.494;6.670;2022-08-25T16:11:39;46.80;1.00
19017;DHT22;9641;51.494;6.670;2022-08-25T16:14:08;46.90;1.00
19017;DHT22;9641;51.494;6.670;2022-08-25T16:16:37;47.00;1.00
19017;DHT22;9641;51.494;6.670;2022-08-25T16:19:04;47.00;1.00
19017;DHT22;9641;51.494;6.670;2022-08-25T16:21:32;47.20;1.00
19017;DHT22;9641;51.494;6.670;2022-08-25T16:24:04;47.40;1.00
19017;DHT22;9641;51.494;6.670;2022-08-25T16:26:34;47.00;1.00
19017;DHT22;9641;51.494;6.670;2022-08-25T16:29:03;46.50;1.00
19017;DHT22;9641;51.494;6.670;2022-08-25T16:31:31;46.70;1.00
19017;DHT22;9641;51.494;6.670;2022-08-25T16:33:58;46.60;1.00
19017;DHT22;9641;51.494;6.670;2022-08-25T16:36:26;46.70;1.00
19017;DHT22;9641;51.494;6.670;2022-08-25T16:38:54;46.70;1.00
19017;DHT22;9641;51.494;6.670;2022-08-25T16:41:25;46.70;1.00
19017;DHT22;9641;51.494;6.670;2022-08-25T16:43:59;47.00;1.00
19017;DHT22;9641;51.494;6.670;2022-08-25T16:46:26;47.00;1.00
19017;DHT22;9641;51.494;6.670;2022-08-25T16:48:53;46.90;1.00